createdAt,value
2019-03-12T00:02:25.829Z,18.23
2019-03-12T00:04:53.116Z,15.83
2019-03-12T00:07:20.306Z,22.67
2019-03-12T00:09:47.599Z,20.50
2019-03-12T00:12:14.708Z,17.80
2019-03-12T00:14:42.077Z,21.07
2019-03-12T00:17:09.481Z,19.63
2019-03-12T00:19:36.597Z,21.30
2019-03-12T00:22:03.631Z,29.20
2019-03-12T00:24:30.817Z,16.37
2019-03-12T00:26:57.875Z,19.60
2019-03-12T00:29:37.343Z,20.17
2019-03-12T00:32:04.756Z,20.73
2019-03-12T00:34:31.886Z,15.50
2019-03-12T00:36:59.064Z,24.83
2019-03-12T00:39:26.108Z,21.67
2019-03-12T00:41:53.140Z,21.03
2019-03-12T00:44:22.176Z,18.47
2019-03-12T00:46:49.222Z,23.00
2019-03-12T00:49:18.077Z,21.13
2019-03-12T00:51:45.162Z,20.90
2019-03-12T00:54:12.259Z,20.30
2019-03-12T00:56:39.375Z,22.77
2019-03-12T00:59:06.469Z,20.03
2019-03-12T01:01:33.699Z,20.80
2019-03-12T01:04:00.875Z,17.40
2019-03-12T01:06:27.952Z,18.90
2019-03-12T01:08:55.149Z,17.90
2019-03-12T01:11:22.220Z,17.13
2019-03-12T01:13:49.396Z,19.03
2019-03-12T01:16:16.614Z,23.37
2019-03-12T01:18:43.898Z,18.83
2019-03-12T01:21:11.022Z,18.67
2019-03-12T01:23:38.072Z,17.50
2019-03-12T01:26:05.122Z,14.33
2019-03-12T01:28:32.211Z,17.00
2019-03-12T01:30:59.260Z,16.13
2019-03-12T01:33:26.459Z,17.40
2019-03-12T01:36:16.363Z,18.77
2019-03-12T01:38:43.485Z,21.80
2019-03-12T01:41:10.518Z,14.60
2019-03-12T01:43:37.576Z,13.87
2019-03-12T01:46:04.752Z,17.10
2019-03-12T01:48:31.787Z,18.07
2019-03-12T01:50:58.894Z,20.20
2019-03-12T01:53:25.945Z,10.47
2019-03-12T01:56:29.718Z,16.83
2019-03-12T01:58:56.774Z,18.87
2019-03-12T02:01:23.813Z,13.37
2019-03-12T02:03:50.886Z,14.17
2019-03-12T02:06:17.924Z,23.17
2019-03-12T02:08:44.965Z,18.80
2019-03-12T02:11:12.021Z,22.93
2019-03-12T02:13:39.106Z,17.37
2019-03-12T02:16:06.147Z,19.30
2019-03-12T02:18:33.255Z,15.90
2019-03-12T02:21:00.390Z,17.20
2019-03-12T02:23:28.926Z,14.27
2019-03-12T02:25:56.413Z,12.70
2019-03-12T02:28:23.438Z,16.07
2019-03-12T02:30:50.619Z,16.90
2019-03-12T02:33:17.684Z,20.57
2019-03-12T02:35:44.795Z,17.77
2019-03-12T02:38:11.865Z,16.37
2019-03-12T02:40:38.928Z,11.80
2019-03-12T02:43:06.012Z,12.57
2019-03-12T02:45:33.047Z,18.80
2019-03-12T02:48:01.288Z,13.77
2019-03-12T02:50:28.372Z,13.57
2019-03-12T02:52:55.414Z,17.40
2019-03-12T02:55:22.451Z,17.37
2019-03-12T02:57:49.532Z,17.83
2019-03-12T03:00:19.864Z,12.23
2019-03-12T03:02:46.901Z,17.60
2019-03-12T03:05:14.171Z,16.20
2019-03-12T03:07:50.055Z,17.47
2019-03-12T03:10:17.365Z,18.97
2019-03-12T03:12:44.527Z,14.70
2019-03-12T03:15:18.380Z,20.53
2019-03-12T03:17:45.439Z,18.37
2019-03-12T03:20:12.574Z,16.33
2019-03-12T03:22:39.674Z,18.90
2019-03-12T03:25:06.918Z,21.10
2019-03-12T03:27:34.535Z,21.77
2019-03-12T03:30:03.581Z,20.07
2019-03-12T03:32:30.894Z,22.60
2019-03-12T03:34:57.985Z,16.97
2019-03-12T03:37:25.061Z,15.27
2019-03-12T03:39:52.110Z,20.60
2019-03-12T03:42:19.254Z,24.83
2019-03-12T03:44:46.322Z,20.57
2019-03-12T03:47:13.352Z,22.97
2019-03-12T03:49:40.398Z,26.73
2019-03-12T03:52:07.494Z,22.57
2019-03-12T03:54:34.665Z,18.03
2019-03-12T03:57:01.935Z,22.63
2019-03-12T03:59:29.000Z,24.30
2019-03-12T04:01:56.039Z,21.83
2019-03-12T04:04:23.080Z,18.30
2019-03-12T04:06:50.352Z,29.77
2019-03-12T04:09:17.365Z,21.43
2019-03-12T04:11:44.408Z,19.57
2019-03-12T04:14:11.490Z,28.37
2019-03-12T04:17:21.378Z,19.40
2019-03-12T04:19:48.459Z,28.40
2019-03-12T04:22:15.495Z,21.77
2019-03-12T04:24:42.557Z,25.93
2019-03-12T04:27:09.634Z,26.83
2019-03-12T04:29:37.621Z,30.07
2019-03-12T04:32:04.748Z,33.67
2019-03-12T04:34:37.400Z,27.47
2019-03-12T04:37:04.558Z,25.23
2019-03-12T04:39:31.632Z,20.13
2019-03-12T04:41:58.680Z,26.80
2019-03-12T04:44:30.373Z,24.87
2019-03-12T04:46:57.462Z,25.27
2019-03-12T04:49:24.503Z,24.57
2019-03-12T04:51:51.560Z,31.93
2019-03-12T04:54:18.630Z,26.53
2019-03-12T04:56:45.695Z,19.90
2019-03-12T04:59:12.751Z,20.07
2019-03-12T05:01:39.832Z,21.80
2019-03-12T05:04:06.912Z,22.70
2019-03-12T05:06:33.921Z,24.43
2019-03-12T05:09:01.021Z,24.97
2019-03-12T05:11:28.379Z,18.43
2019-03-12T05:14:24.153Z,27.50
2019-03-12T05:16:52.994Z,21.00
2019-03-12T05:19:20.551Z,38.63
2019-03-12T05:21:47.612Z,26.87
2019-03-12T05:24:14.677Z,28.73
2019-03-12T05:26:41.724Z,28.97
2019-03-12T05:29:13.430Z,27.60
2019-03-12T05:31:44.739Z,22.13
2019-03-12T05:34:13.572Z,29.37
2019-03-12T05:36:48.009Z,24.40
2019-03-12T05:39:15.089Z,26.93
2019-03-12T05:41:42.169Z,19.30
2019-03-12T05:44:09.241Z,34.00
2019-03-12T05:46:36.282Z,23.23
2019-03-12T05:49:03.331Z,23.70
2019-03-12T05:51:30.425Z,18.80
2019-03-12T05:53:57.499Z,22.87
2019-03-12T05:56:24.545Z,22.23
2019-03-12T05:58:51.644Z,25.67
2019-03-12T06:01:18.696Z,22.53
2019-03-12T06:03:45.740Z,22.03
2019-03-12T06:06:12.919Z,18.63
2019-03-12T06:08:39.963Z,26.93
2019-03-12T06:11:07.012Z,21.63
2019-03-12T06:13:34.198Z,20.07
2019-03-12T06:16:01.563Z,19.77
2019-03-12T06:18:28.612Z,23.93
2019-03-12T06:20:55.692Z,17.73
2019-03-12T06:23:22.796Z,21.57
2019-03-12T06:25:50.230Z,23.70
2019-03-12T06:28:17.276Z,26.90
2019-03-12T06:31:04.220Z,24.13
2019-03-12T06:33:47.582Z,21.80
2019-03-12T06:36:37.097Z,25.30
2019-03-12T06:39:14.356Z,31.67
2019-03-12T06:42:10.054Z,16.43
2019-03-12T06:44:44.292Z,23.27
2019-03-12T06:47:40.308Z,17.03
2019-03-12T06:50:17.316Z,19.63
2019-03-12T06:53:04.030Z,19.33
2019-03-12T06:55:48.633Z,26.60
2019-03-12T06:58:54.105Z,22.63
2019-03-12T07:02:24.620Z,20.43
2019-03-12T07:05:10.064Z,22.07
2019-03-12T07:07:55.605Z,19.30
2019-03-12T07:10:41.269Z,15.57
2019-03-12T07:13:34.197Z,27.40
2019-03-12T07:16:23.621Z,17.10
2019-03-12T07:19:13.049Z,17.97
2019-03-12T07:22:02.610Z,22.33
2019-03-12T07:24:40.436Z,20.20
2019-03-12T07:27:29.888Z,20.33
2019-03-12T07:30:15.251Z,18.67
2019-03-12T07:33:00.893Z,17.17
2019-03-12T07:35:46.473Z,18.33
2019-03-12T07:38:42.421Z,18.97
2019-03-12T07:41:32.959Z,18.90
2019-03-12T07:44:19.635Z,17.97
2019-03-12T07:46:52.189Z,20.40
2019-03-12T07:49:38.920Z,15.70
2019-03-12T07:52:17.809Z,14.03
2019-03-12T07:55:13.171Z,13.83
2019-03-12T07:57:53.571Z,11.90
2019-03-12T08:00:32.314Z,21.30
2019-03-12T08:03:16.852Z,12.87
2019-03-12T08:06:02.427Z,14.00
2019-03-12T08:08:48.114Z,20.50
2019-03-12T08:11:22.719Z,13.60
2019-03-12T08:14:09.383Z,14.67
2019-03-12T08:17:08.263Z,18.77
2019-03-12T08:19:53.791Z,12.53
2019-03-12T08:22:39.269Z,13.03
2019-03-12T08:25:22.074Z,19.90
2019-03-12T08:27:57.951Z,16.40
2019-03-12T08:30:45.431Z,14.67
2019-03-12T08:33:50.630Z,17.90
2019-03-12T08:36:27.567Z,19.30
2019-03-12T08:39:14.244Z,13.63
2019-03-12T08:42:18.995Z,16.27
2019-03-12T08:45:17.946Z,13.10
2019-03-12T08:48:12.932Z,9.77
2019-03-12T08:51:05.568Z,11.13
2019-03-12T08:53:55.095Z,13.57
2019-03-12T08:56:39.035Z,11.13
2019-03-12T08:59:18.966Z,10.30
2019-03-12T09:02:04.135Z,9.77
2019-03-12T09:05:07.059Z,15.07
2019-03-12T09:07:44.134Z,14.93
2019-03-12T09:10:32.325Z,25.93
2019-03-12T09:13:12.014Z,16.77
2019-03-12T09:15:58.698Z,10.97
2019-03-12T09:19:01.302Z,12.03
2019-03-12T09:21:50.956Z,13.63
2019-03-12T09:24:27.966Z,13.37
2019-03-12T09:27:02.213Z,8.43
2019-03-12T09:29:51.432Z,10.37
2019-03-12T09:32:31.765Z,21.80
2019-03-12T09:35:12.833Z,9.13
2019-03-12T09:37:53.571Z,13.97
2019-03-12T09:40:34.149Z,18.97
2019-03-12T09:43:31.602Z,13.20
2019-03-12T09:46:36.522Z,17.17
2019-03-12T09:49:27.650Z,12.63
2019-03-12T09:52:04.690Z,11.83
2019-03-12T09:54:43.560Z,12.23
2019-03-12T09:57:30.346Z,11.70
2019-03-12T10:00:21.489Z,13.03
2019-03-12T10:03:08.572Z,8.80
2019-03-12T10:05:55.222Z,12.40
2019-03-12T10:08:47.951Z,11.10
2019-03-12T10:11:40.366Z,11.10
2019-03-12T10:14:29.814Z,14.63
2019-03-12T10:17:22.212Z,14.27
2019-03-12T10:19:56.321Z,8.80
2019-03-12T10:22:40.635Z,8.73
2019-03-12T10:25:27.556Z,14.03
2019-03-12T10:28:05.780Z,7.80
2019-03-12T10:30:50.964Z,10.63
2019-03-12T10:33:35.297Z,11.67
2019-03-12T10:36:30.919Z,10.90
2019-03-12T10:39:56.442Z,12.43
2019-03-12T10:42:35.877Z,15.97
2019-03-12T10:45:21.330Z,9.60
2019-03-12T10:47:48.445Z,10.57
2019-03-12T10:50:15.519Z,8.37
2019-03-12T10:52:42.583Z,8.83
2019-03-12T10:55:13.367Z,10.67
2019-03-12T10:57:43.048Z,9.07
2019-03-12T11:00:11.208Z,13.60
2019-03-12T11:02:40.670Z,10.60
2019-03-12T11:05:07.676Z,11.60
2019-03-12T11:07:34.743Z,9.63
2019-03-12T11:10:01.877Z,10.73
2019-03-12T11:12:29.055Z,6.30
2019-03-12T11:14:56.239Z,14.53
2019-03-12T11:17:23.315Z,9.30
2019-03-12T11:19:50.498Z,8.90
2019-03-12T11:22:17.666Z,9.10
2019-03-12T11:24:44.902Z,10.20
2019-03-12T11:27:12.003Z,9.47
2019-03-12T11:29:39.052Z,10.90
2019-03-12T11:32:06.288Z,11.57
2019-03-12T11:34:33.415Z,9.37
2019-03-12T11:37:00.651Z,10.33
2019-03-12T11:39:27.900Z,8.83
2019-03-12T11:41:54.978Z,10.27
2019-03-12T11:44:22.201Z,12.70
2019-03-12T11:46:49.366Z,11.03
2019-03-12T11:49:16.668Z,9.13
2019-03-12T11:51:43.700Z,10.00
2019-03-12T11:54:10.769Z,8.97
2019-03-12T11:56:38.091Z,13.10
2019-03-12T11:59:05.173Z,15.93
2019-03-12T12:01:33.349Z,10.00
2019-03-12T12:04:00.462Z,11.27
2019-03-12T12:06:27.521Z,10.47
2019-03-12T12:08:54.672Z,9.90
2019-03-12T12:11:21.765Z,5.97
2019-03-12T12:13:48.838Z,13.00
2019-03-12T12:16:16.158Z,10.13
2019-03-12T12:18:43.434Z,11.37
2019-03-12T12:21:17.706Z,6.43
2019-03-12T12:23:44.801Z,6.23
2019-03-12T12:26:11.876Z,12.37
2019-03-12T12:28:57.406Z,11.93
2019-03-12T12:31:24.508Z,7.17
2019-03-12T12:33:51.568Z,7.53
2019-03-12T12:36:18.674Z,17.67
2019-03-12T12:38:45.784Z,15.23
2019-03-12T12:41:12.974Z,9.93
2019-03-12T12:43:40.067Z,8.97
2019-03-12T12:46:07.163Z,13.43
2019-03-12T12:48:41.782Z,6.27
2019-03-12T12:51:08.823Z,6.10
2019-03-12T12:53:41.932Z,9.90
2019-03-12T12:56:08.985Z,5.63
2019-03-12T12:58:36.048Z,7.73
2019-03-12T13:01:03.198Z,6.57
2019-03-12T13:03:30.245Z,7.47
2019-03-12T13:05:57.325Z,8.37
2019-03-12T13:08:24.428Z,6.43
2019-03-12T13:10:51.482Z,8.90
2019-03-12T13:13:18.529Z,6.60
2019-03-12T13:15:45.609Z,5.70
2019-03-12T13:18:12.653Z,9.23
2019-03-12T13:20:39.829Z,7.50
2019-03-12T13:23:06.930Z,6.57
2019-03-12T13:25:33.974Z,8.80
2019-03-12T13:28:01.053Z,7.47
2019-03-12T13:30:28.123Z,5.07
2019-03-12T13:32:55.188Z,6.63
2019-03-12T13:35:22.334Z,9.63
2019-03-12T13:37:49.451Z,6.70
2019-03-12T13:40:17.492Z,8.20
2019-03-12T13:42:44.776Z,7.23
2019-03-12T13:45:17.475Z,5.60
2019-03-12T13:47:46.317Z,5.47
2019-03-12T13:50:13.890Z,6.00
2019-03-12T13:52:40.987Z,6.70
2019-03-12T13:55:08.968Z,7.70
2019-03-12T13:57:36.132Z,4.67
2019-03-12T14:00:06.184Z,5.93
2019-03-12T14:02:33.469Z,9.33
2019-03-12T14:05:00.532Z,6.23
2019-03-12T14:07:27.613Z,8.67
2019-03-12T14:09:54.773Z,6.20
2019-03-12T14:12:21.925Z,7.70
2019-03-12T14:14:49.102Z,5.63
2019-03-12T14:17:16.144Z,4.63
2019-03-12T14:19:43.204Z,9.53
2019-03-12T14:22:10.290Z,8.03
2019-03-12T14:24:37.444Z,5.77
2019-03-12T14:27:04.621Z,9.03
2019-03-12T14:29:33.821Z,6.97
2019-03-12T14:32:01.011Z,6.47
2019-03-12T14:34:28.158Z,6.57
2019-03-12T14:36:55.333Z,11.47
2019-03-12T14:39:22.541Z,3.27
2019-03-12T14:41:49.767Z,6.53
2019-03-12T14:44:17.129Z,5.50
2019-03-12T14:46:44.370Z,12.17
2019-03-12T14:49:11.511Z,3.57
2019-03-12T14:52:03.260Z,5.87
2019-03-12T14:54:30.323Z,5.10
2019-03-12T14:56:57.555Z,8.57
2019-03-12T14:59:24.824Z,3.20
2019-03-12T15:01:51.979Z,8.93
2019-03-12T15:04:19.048Z,4.60
2019-03-12T15:06:46.272Z,5.63
2019-03-12T15:09:14.856Z,3.63
2019-03-12T15:11:42.181Z,9.00
2019-03-12T15:14:09.321Z,4.53
2019-03-12T15:16:36.391Z,5.70
2019-03-12T15:19:03.735Z,5.23
2019-03-12T15:21:30.998Z,5.03
2019-03-12T15:23:58.321Z,5.37
2019-03-12T15:26:25.390Z,10.53
2019-03-12T15:28:52.518Z,7.70
2019-03-12T15:31:19.822Z,8.07
2019-03-12T15:33:47.394Z,11.27
2019-03-12T15:36:14.519Z,5.70
2019-03-12T15:38:41.735Z,6.50
2019-03-12T15:41:08.772Z,6.13
2019-03-12T15:43:35.811Z,7.07
2019-03-12T15:46:03.325Z,3.73
2019-03-12T15:48:30.585Z,4.80
2019-03-12T15:50:57.767Z,7.80
2019-03-12T15:53:24.883Z,7.83
2019-03-12T15:55:51.954Z,13.10
2019-03-12T15:58:19.036Z,5.23
2019-03-12T16:00:46.116Z,12.23
2019-03-12T16:03:13.201Z,4.67
2019-03-12T16:05:40.245Z,11.80
2019-03-12T16:08:07.316Z,2.97
2019-03-12T16:10:34.511Z,8.03
2019-03-12T16:13:01.597Z,5.73
2019-03-12T16:15:28.669Z,4.73
2019-03-12T16:17:55.793Z,4.33
2019-03-12T16:20:22.878Z,4.50
2019-03-12T16:22:50.036Z,4.90
2019-03-12T16:25:17.451Z,7.63
2019-03-12T16:27:44.791Z,8.93
2019-03-12T16:30:12.042Z,6.00
2019-03-12T16:32:39.138Z,8.20
2019-03-12T16:35:06.586Z,7.40
2019-03-12T16:37:33.981Z,4.20
2019-03-12T16:40:01.214Z,3.63
2019-03-12T16:42:34.966Z,2.83
2019-03-12T16:44:57.303Z,4.37
2019-03-12T16:47:24.639Z,3.93
2019-03-12T16:49:51.988Z,3.43
2019-03-12T16:52:19.110Z,3.47
2019-03-12T16:54:46.144Z,6.70
2019-03-12T16:57:13.205Z,3.43
2019-03-12T16:59:40.329Z,6.77
2019-03-12T17:02:07.444Z,3.10
2019-03-12T17:04:35.612Z,5.57
2019-03-12T17:07:02.728Z,3.60
2019-03-12T17:10:12.786Z,7.27
2019-03-12T17:12:39.885Z,7.53
2019-03-12T17:15:09.145Z,6.17
2019-03-12T17:17:36.302Z,6.03
2019-03-12T17:20:03.966Z,6.03
2019-03-12T17:22:31.055Z,7.47
2019-03-12T17:24:58.141Z,5.77
2019-03-12T17:27:25.418Z,4.87
2019-03-12T17:29:52.475Z,7.23
2019-03-12T17:32:19.564Z,6.57
2019-03-12T17:34:46.672Z,6.60
2019-03-12T17:37:13.867Z,5.80
2019-03-12T17:39:41.289Z,7.60
2019-03-12T17:42:08.403Z,6.67
2019-03-12T17:44:35.773Z,2.63
2019-03-12T17:47:02.971Z,3.97
2019-03-12T17:49:30.079Z,4.27
2019-03-12T17:51:57.265Z,8.57
2019-03-12T17:54:24.486Z,3.87
2019-03-12T17:56:51.562Z,5.93
2019-03-12T17:59:19.122Z,5.83
2019-03-12T18:01:46.205Z,6.57
2019-03-12T18:04:13.522Z,5.27
2019-03-12T18:06:40.778Z,6.63
2019-03-12T18:09:08.971Z,5.23
2019-03-12T18:11:36.205Z,4.30
2019-03-12T18:14:03.274Z,4.27
2019-03-12T18:16:41.089Z,4.00
2019-03-12T18:19:01.241Z,3.33
2019-03-12T18:21:28.398Z,4.23
2019-03-12T18:23:55.593Z,4.53
2019-03-12T18:26:23.432Z,6.17
2019-03-12T18:28:51.721Z,8.10
2019-03-12T18:31:19.343Z,8.70
2019-03-12T18:33:46.653Z,9.20
2019-03-12T18:36:13.809Z,10.20
2019-03-12T18:38:41.280Z,4.53
2019-03-12T18:41:08.550Z,6.00
2019-03-12T18:43:35.644Z,4.83
2019-03-12T18:46:02.816Z,8.97
2019-03-12T18:48:30.069Z,2.70
2019-03-12T18:50:57.566Z,5.40
2019-03-12T18:53:24.915Z,5.67
2019-03-12T18:56:10.513Z,4.63
2019-03-12T18:58:37.596Z,10.43
2019-03-12T19:01:09.095Z,6.03
2019-03-12T19:03:36.199Z,10.40
2019-03-12T19:06:03.349Z,6.20
2019-03-12T19:08:30.521Z,3.30
2019-03-12T19:10:57.634Z,7.97
2019-03-12T19:13:26.621Z,8.20
2019-03-12T19:15:56.356Z,10.60
2019-03-12T19:18:23.440Z,4.67
2019-03-12T19:20:50.707Z,7.73
2019-03-12T19:23:17.964Z,9.30
2019-03-12T19:25:45.285Z,9.37
2019-03-12T19:28:13.684Z,8.07
2019-03-12T19:30:40.884Z,8.37
2019-03-12T19:33:10.193Z,4.10
2019-03-12T19:35:37.404Z,7.73
2019-03-12T19:38:04.590Z,8.73
2019-03-12T19:40:32.063Z,7.43
2019-03-12T19:42:59.206Z,8.27
2019-03-12T19:45:26.280Z,7.03
2019-03-12T19:47:53.497Z,4.80
2019-03-12T19:50:21.127Z,6.80
2019-03-12T19:52:48.208Z,7.43
2019-03-12T19:55:19.681Z,5.00
2019-03-12T19:57:46.798Z,7.07
2019-03-12T20:00:15.781Z,8.53
2019-03-12T20:02:45.657Z,10.90
2019-03-12T20:05:12.896Z,9.13
2019-03-12T20:07:40.465Z,6.77
2019-03-12T20:11:07.518Z,10.07
2019-03-12T20:14:27.950Z,10.53
2019-03-12T20:17:36.005Z,8.43
2019-03-12T20:20:40.197Z,12.83
2019-03-12T20:24:02.752Z,11.67
2019-03-12T20:27:16.894Z,10.50
2019-03-12T20:30:24.507Z,13.13
2019-03-12T20:33:30.220Z,6.17
2019-03-12T20:36:34.872Z,2.63
2019-03-12T20:40:04.907Z,2.27
2019-03-12T20:43:09.579Z,0.33
2019-03-12T20:46:52.446Z,1.50
2019-03-12T20:49:56.189Z,2.70
2019-03-12T20:52:59.769Z,0.70
2019-03-12T20:56:04.557Z,1.13
2019-03-12T20:59:08.590Z,1.90
2019-03-12T21:02:15.951Z,5.10
2019-03-12T21:05:24.978Z,2.23
2019-03-12T21:08:41.899Z,2.10
2019-03-12T21:11:47.529Z,2.50
2019-03-12T21:14:58.767Z,2.50
2019-03-12T21:18:25.680Z,2.47
2019-03-12T21:21:33.802Z,4.53
2019-03-12T21:24:44.965Z,3.57
2019-03-12T21:27:58.644Z,4.00
2019-03-12T21:30:26.384Z,4.33
2019-03-12T21:32:53.583Z,5.33
2019-03-12T21:35:20.688Z,3.60
2019-03-12T21:37:50.087Z,5.37
2019-03-12T21:40:17.320Z,3.93
2019-03-12T21:42:44.413Z,5.77
2019-03-12T21:45:12.247Z,7.23
2019-03-12T21:47:39.320Z,4.47
2019-03-12T21:50:07.188Z,6.00
2019-03-12T21:52:36.131Z,4.57
2019-03-12T21:55:03.996Z,4.37
2019-03-12T21:57:31.094Z,9.00
2019-03-12T21:59:58.202Z,5.90
2019-03-12T22:02:25.321Z,7.97
2019-03-12T22:04:52.376Z,4.77
2019-03-12T22:07:19.478Z,8.50
2019-03-12T22:09:46.626Z,6.00
2019-03-12T22:12:13.692Z,5.40
2019-03-12T22:14:40.796Z,8.17
2019-03-12T22:17:07.901Z,5.93
2019-03-12T22:19:35.154Z,6.53
2019-03-12T22:22:10.324Z,12.40
2019-03-12T22:24:37.377Z,10.40
2019-03-12T22:27:04.646Z,11.40
2019-03-12T22:29:31.799Z,10.10
2019-03-12T22:31:59.142Z,9.73
2019-03-12T22:34:26.205Z,10.23
2019-03-12T22:36:53.297Z,9.67
2019-03-12T22:40:15.141Z,12.17
2019-03-12T22:42:42.394Z,12.00
2019-03-12T22:45:09.488Z,13.43
2019-03-12T22:48:13.289Z,11.33
2019-03-12T22:50:40.371Z,11.23
2019-03-12T22:53:07.556Z,13.23
2019-03-12T22:55:35.783Z,13.23
2019-03-12T22:58:11.213Z,12.37
2019-03-12T23:00:39.382Z,11.77
2019-03-12T23:03:06.440Z,16.17
2019-03-12T23:05:33.488Z,10.43
2019-03-12T23:08:00.742Z,11.93
2019-03-12T23:10:28.552Z,13.77
2019-03-12T23:12:56.021Z,11.90
2019-03-12T23:15:23.114Z,11.43
2019-03-12T23:17:50.248Z,10.63
2019-03-12T23:20:18.763Z,11.90
2019-03-12T23:22:45.879Z,9.13
2019-03-12T23:25:12.939Z,10.60
2019-03-12T23:27:39.986Z,11.50
2019-03-12T23:30:09.555Z,12.77
2019-03-12T23:32:36.695Z,13.67
2019-03-12T23:35:04.620Z,15.00
2019-03-12T23:37:31.722Z,11.63
2019-03-12T23:39:58.776Z,9.87
2019-03-12T23:42:25.975Z,12.53
2019-03-12T23:44:54.467Z,13.00
2019-03-12T23:47:21.518Z,10.20
2019-03-12T23:49:49.205Z,11.00
2019-03-12T23:52:16.314Z,14.37
2019-03-12T23:54:43.374Z,14.00
2019-03-12T23:57:10.532Z,11.27
2019-03-12T23:59:38.106Z,9.23
